createdAt,value
2023-03-01T00:00:25.178Z,0.0714286
2023-03-01T00:01:25.220Z,0.0714286
2023-03-01T00:02:25.311Z,0.0714286
2023-03-01T00:03:25.366Z,0.0714286
2023-03-01T00:04:25.329Z,0.0714286
2023-03-01T00:05:25.361Z,0.0714286
2023-03-01T00:06:25.402Z,0.0714286
2023-03-01T00:08:46.475Z,-0.0714286
2023-03-01T00:09:46.516Z,-0.0714286
2023-03-01T00:10:46.617Z,-0.0714286
2023-03-01T00:11:46.582Z,-0.0714286
2023-03-01T00:12:46.652Z,-0.0714286
2023-03-01T00:13:46.652Z,-0.0714286
2023-03-01T00:14:46.690Z,-0.0714286
2023-03-01T00:15:46.725Z,-0.0714286
2023-03-01T00:16:46.800Z,-0.0714286
2023-03-01T00:17:46.802Z,-0.0714286
2023-03-01T00:18:46.844Z,-0.0714286
2023-03-01T00:19:46.864Z,-0.0714286
2023-03-01T00:20:46.903Z,-0.0714286
2023-03-01T00:21:46.930Z,-0.0714286
2023-03-01T00:22:46.960Z,-0.0714286
2023-03-01T00:23:47.009Z,-0.142857
2023-03-01T00:24:47.034Z,-0.0714286
2023-03-01T00:25:47.060Z,-0.0714286
2023-03-01T00:26:47.108Z,-0.142857
2023-03-01T00:27:47.140Z,-0.142857
2023-03-01T00:28:47.179Z,-0.142857
2023-03-01T00:29:47.213Z,-0.142857
2023-03-01T00:30:47.272Z,-0.142857
2023-03-01T00:31:47.344Z,-0.142857
2023-03-01T00:32:47.332Z,-0.142857
2023-03-01T00:33:47.347Z,-0.214286
2023-03-01T00:34:47.387Z,-0.214286
2023-03-01T00:35:47.445Z,-0.214286
2023-03-01T00:36:47.446Z,-0.214286
2023-03-01T00:37:47.500Z,-0.214286
2023-03-01T00:38:47.525Z,-0.285714
2023-03-01T00:39:47.545Z,-0.214286
2023-03-01T00:40:47.585Z,-0.214286
2023-03-01T00:41:47.630Z,-0.214286
2023-03-01T00:42:47.667Z,-0.214286
2023-03-01T00:43:47.716Z,-0.285714
2023-03-01T00:44:47.736Z,-0.285714
2023-03-01T00:45:47.781Z,-0.285714
2023-03-01T00:46:47.800Z,-0.285714
2023-03-01T00:47:47.832Z,-0.285714
2023-03-01T00:48:47.874Z,-0.285714
2023-03-01T00:49:47.912Z,-0.285714
2023-03-01T00:50:47.959Z,-0.285714
2023-03-01T00:51:47.978Z,-0.285714
2023-03-01T00:52:48.020Z,-0.285714
2023-03-01T00:53:48.061Z,-0.285714
2023-03-01T00:54:48.094Z,-0.285714
2023-03-01T00:55:48.130Z,-0.285714
2023-03-01T00:56:48.194Z,-0.285714
2023-03-01T00:57:48.208Z,-0.357143
2023-03-01T00:58:48.236Z,-0.357143
2023-03-01T00:59:48.278Z,-0.357143
2023-03-01T01:00:48.317Z,-0.357143
2023-03-01T01:01:48.464Z,-0.357143
2023-03-01T01:02:48.573Z,-0.357143
2023-03-01T01:03:48.436Z,-0.357143
2023-03-01T01:04:48.466Z,-0.428571
2023-03-01T01:05:48.501Z,-0.428571
2023-03-01T01:06:48.539Z,-0.428571
2023-03-01T01:07:48.589Z,-0.5
2023-03-01T01:08:48.601Z,-0.5
2023-03-01T01:09:48.626Z,-0.5
2023-03-01T01:10:48.670Z,-0.5
2023-03-01T01:11:48.711Z,-0.5
2023-03-01T01:12:48.735Z,-0.5
2023-03-01T01:13:48.764Z,-0.5
2023-03-01T01:14:48.797Z,-0.5
2023-03-01T01:15:48.858Z,-0.5
2023-03-01T01:16:48.869Z,-0.5
2023-03-01T01:17:48.893Z,-0.5
2023-03-01T01:18:48.932Z,-0.571429
2023-03-01T01:19:48.964Z,-0.571429
2023-03-01T01:20:48.987Z,-0.571429
2023-03-01T01:21:49.059Z,-0.5
2023-03-01T01:22:49.055Z,-0.5
2023-03-01T01:23:49.095Z,-0.5
2023-03-01T01:24:49.125Z,-0.5
2023-03-01T01:25:49.153Z,-0.5
2023-03-01T01:26:49.239Z,-0.571429
2023-03-01T01:27:49.222Z,-0.571429
2023-03-01T01:28:49.266Z,-0.571429
2023-03-01T01:29:49.299Z,-0.642857
2023-03-01T01:30:49.377Z,-0.642857
2023-03-01T01:31:49.473Z,-0.642857
2023-03-01T01:32:49.408Z,-0.642857
2023-03-01T01:33:49.438Z,-0.642857
2023-03-01T01:34:49.477Z,-0.642857
2023-03-01T01:35:49.534Z,-0.642857
2023-03-01T01:36:49.562Z,-0.642857
2023-03-01T01:37:49.581Z,-0.642857
2023-03-01T01:38:49.635Z,-0.642857
2023-03-01T01:39:49.664Z,-0.642857
2023-03-01T01:40:49.714Z,-0.642857
2023-03-01T01:41:49.736Z,-0.714286
2023-03-01T01:42:49.762Z,-0.714286
2023-03-01T01:43:49.806Z,-0.714286
2023-03-01T01:44:49.832Z,-0.714286
2023-03-01T01:45:49.862Z,-0.714286
2023-03-01T01:46:49.962Z,-0.714286
2023-03-01T01:47:49.929Z,-0.714286
2023-03-01T01:48:49.967Z,-0.714286
2023-03-01T01:49:49.993Z,-0.714286
2023-03-01T01:50:50.032Z,-0.714286
2023-03-01T01:51:50.056Z,-0.714286
2023-03-01T01:52:50.100Z,-0.714286
2023-03-01T01:53:50.124Z,-0.714286
2023-03-01T01:54:50.160Z,-0.714286
2023-03-01T01:55:50.189Z,-0.785714
2023-03-01T01:56:50.233Z,-0.785714
2023-03-01T01:57:50.263Z,-0.785714
2023-03-01T01:58:50.300Z,-0.785714
2023-03-01T01:59:50.333Z,-0.785714
2023-03-01T02:00:50.368Z,-0.785714
2023-03-01T02:01:50.398Z,-0.785714
2023-03-01T02:02:50.513Z,-0.785714
2023-03-01T02:03:50.532Z,-0.785714
2023-03-01T02:04:50.515Z,-0.785714
2023-03-01T02:05:55.201Z,-0.785714
2023-03-01T02:06:50.577Z,-0.714286
2023-03-01T02:07:50.611Z,-0.714286
2023-03-01T02:08:50.658Z,-0.714286
2023-03-01T02:09:50.693Z,-0.714286
2023-03-01T02:10:50.721Z,-0.785714
2023-03-01T02:11:50.765Z,-0.785714
2023-03-01T02:12:50.808Z,-0.785714
2023-03-01T02:13:50.829Z,-0.785714
2023-03-01T02:14:50.871Z,-0.785714
2023-03-01T02:15:50.928Z,-0.857143
2023-03-01T02:16:50.930Z,-0.857143
2023-03-01T02:17:50.963Z,-0.857143
2023-03-01T02:18:51.006Z,-0.857143
2023-03-01T02:19:51.049Z,-0.928571
2023-03-01T02:20:51.068Z,-0.857143
2023-03-01T02:21:51.128Z,-0.857143
2023-03-01T02:22:51.142Z,-0.928571
2023-03-01T02:23:51.173Z,-0.928571
2023-03-01T02:24:51.207Z,-0.928571
2023-03-01T02:25:51.252Z,-0.928571
2023-03-01T02:26:51.284Z,-0.928571
2023-03-01T02:27:51.317Z,-0.928571
2023-03-01T02:28:51.354Z,-0.928571
2023-03-01T02:29:51.389Z,-0.928571
2023-03-01T02:30:51.426Z,-1
2023-03-01T02:31:51.459Z,-1
2023-03-01T02:32:51.477Z,-1
2023-03-01T02:33:51.513Z,-1
2023-03-01T02:34:51.551Z,-1
2023-03-01T02:35:51.589Z,-1
2023-03-01T02:36:51.617Z,-1
2023-03-01T02:37:51.643Z,-1
2023-03-01T02:38:51.672Z,-1
2023-03-01T02:39:51.698Z,-1.07143
2023-03-01T02:40:51.735Z,-1.07143
2023-03-01T02:41:51.769Z,-1.07143
2023-03-01T02:42:51.821Z,-1
2023-03-01T02:43:51.845Z,-1
2023-03-01T02:44:51.883Z,-1.07143
2023-03-01T02:45:51.906Z,-1.07143
2023-03-01T02:46:52.002Z,-1.07143
2023-03-01T02:47:51.964Z,-1.07143
2023-03-01T02:48:52.017Z,-1.07143
2023-03-01T02:49:52.039Z,-1.07143
2023-03-01T02:50:52.062Z,-1
2023-03-01T02:51:52.097Z,-1.07143
2023-03-01T02:52:52.141Z,-1.07143
2023-03-01T02:53:52.176Z,-1.07143
2023-03-01T02:54:52.198Z,-1.07143
2023-03-01T02:55:52.235Z,-1.07143
2023-03-01T02:56:52.271Z,-1.07143
2023-03-01T02:57:52.296Z,-1.07143
2023-03-01T02:58:52.319Z,-1.07143
2023-03-01T02:59:52.352Z,-1.14286
2023-03-01T03:00:52.456Z,-1.14286
2023-03-01T03:01:52.449Z,-1.07143
2023-03-01T03:02:52.453Z,-1.07143
2023-03-01T03:03:52.563Z,-1.07143
2023-03-01T03:04:52.515Z,-1.07143
2023-03-01T03:05:52.548Z,-1.07143
2023-03-01T03:06:52.591Z,-1.14286
2023-03-01T03:07:52.613Z,-1.14286
2023-03-01T03:08:52.651Z,-1.14286
2023-03-01T03:09:52.692Z,-1.14286
2023-03-01T03:10:52.727Z,-1.14286
2023-03-01T03:11:52.766Z,-1.14286
2023-03-01T03:12:52.809Z,-1.14286
2023-03-01T03:13:52.825Z,-1.14286
2023-03-01T03:14:52.865Z,-1.14286
2023-03-01T03:15:52.989Z,-1.14286
2023-03-01T03:16:52.943Z,-1.14286
2023-03-01T03:17:52.968Z,-1.14286
2023-03-01T03:18:53.017Z,-1.21429
2023-03-01T03:19:53.058Z,-1.21429
2023-03-01T03:20:53.085Z,-1.21429
2023-03-01T03:21:53.111Z,-1.21429
2023-03-01T03:22:53.152Z,-1.21429
2023-03-01T03:23:53.177Z,-1.21429
2023-03-01T03:24:53.212Z,-1.21429
2023-03-01T03:25:53.248Z,-1.21429
2023-03-01T03:26:53.288Z,-1.14286
2023-03-01T03:27:53.328Z,-1.14286
2023-03-01T03:28:53.361Z,-1.14286
2023-03-01T03:29:53.393Z,-1.14286
2023-03-01T03:30:53.426Z,-1.14286
2023-03-01T03:31:53.558Z,-1.21429
2023-03-01T03:32:53.577Z,-1.21429
2023-03-01T03:33:53.532Z,-1.21429
2023-03-01T03:34:53.564Z,-1.21429
2023-03-01T03:35:53.621Z,-1.21429
2023-03-01T03:36:53.656Z,-1.21429
2023-03-01T03:37:53.667Z,-1.21429
2023-03-01T03:38:53.694Z,-1.21429
2023-03-01T03:39:53.730Z,-1.28571
2023-03-01T03:40:53.777Z,-1.28571
2023-03-01T03:41:53.808Z,-1.28571
2023-03-01T03:42:53.836Z,-1.28571
2023-03-01T03:43:53.882Z,-1.28571
2023-03-01T03:44:53.900Z,-1.28571
2023-03-01T03:45:54.001Z,-1.28571
2023-03-01T03:46:53.987Z,-1.28571
2023-03-01T03:47:54.032Z,-1.28571
2023-03-01T03:48:54.061Z,-1.28571
2023-03-01T03:49:54.092Z,-1.28571
2023-03-01T03:50:54.131Z,-1.35714
2023-03-01T03:51:54.146Z,-1.35714
2023-03-01T03:52:54.189Z,-1.35714
2023-03-01T03:53:54.218Z,-1.35714
2023-03-01T03:54:54.253Z,-1.35714
2023-03-01T03:55:54.285Z,-1.35714
2023-03-01T03:56:54.331Z,-1.35714
2023-03-01T03:57:54.358Z,-1.35714
2023-03-01T03:58:54.401Z,-1.35714
2023-03-01T03:59:54.422Z,-1.42857
2023-03-01T04:00:54.459Z,-1.42857
2023-03-01T04:01:54.539Z,-1.42857
2023-03-01T04:02:54.622Z,-1.42857
2023-03-01T04:03:54.565Z,-1.42857
2023-03-01T04:04:54.602Z,-1.42857
2023-03-01T04:05:54.684Z,-1.42857
2023-03-01T04:06:54.677Z,-1.42857
2023-03-01T04:07:54.706Z,-1.42857
2023-03-01T04:08:54.746Z,-1.42857
2023-03-01T04:09:54.780Z,-1.42857
2023-03-01T04:10:54.806Z,-1.42857
2023-03-01T04:11:54.842Z,-1.42857
2023-03-01T04:12:54.876Z,-1.42857
2023-03-01T04:13:54.920Z,-1.42857
2023-03-01T04:14:54.955Z,-1.5
2023-03-01T04:15:55.003Z,-1.5
2023-03-01T04:16:55.076Z,-1.5
2023-03-01T04:17:55.062Z,-1.5
2023-03-01T04:18:55.094Z,-1.5
2023-03-01T04:19:55.125Z,-1.5
2023-03-01T04:20:55.164Z,-1.5
2023-03-01T04:21:55.194Z,-1.5
2023-03-01T04:22:55.241Z,-1.5
2023-03-01T04:23:55.271Z,-1.5
2023-03-01T04:24:55.304Z,-1.5
2023-03-01T04:25:55.343Z,-1.5
2023-03-01T04:26:55.386Z,-1.5
2023-03-01T04:27:55.410Z,-1.5
2023-03-01T04:28:55.445Z,-1.5
2023-03-01T04:29:55.490Z,-1.5
2023-03-01T04:30:55.516Z,-1.5
2023-03-01T04:31:55.698Z,-1.5
2023-03-01T04:32:55.585Z,-1.5
2023-03-01T04:33:55.641Z,-1.5
2023-03-01T04:34:55.669Z,-1.5
2023-03-01T04:35:55.801Z,-1.5
2023-03-01T04:36:55.763Z,-1.5
2023-03-01T04:37:55.769Z,-1.5
2023-03-01T04:38:55.806Z,-1.5
2023-03-01T04:39:55.846Z,-1.5
2023-03-01T04:40:55.869Z,-1.57143
2023-03-01T04:41:55.915Z,-1.57143
2023-03-01T04:42:55.931Z,-1.57143
2023-03-01T04:43:55.965Z,-1.57143
2023-03-01T04:44:56.003Z,-1.5
2023-03-01T04:45:56.085Z,-1.57143
2023-03-01T04:46:56.083Z,-1.57143
2023-03-01T04:47:56.126Z,-1.57143
2023-03-01T04:48:56.171Z,-1.57143
2023-03-01T04:49:56.190Z,-1.57143
2023-03-01T04:50:56.222Z,-1.64286
2023-03-01T04:51:56.255Z,-1.64286
2023-03-01T04:52:56.289Z,-1.57143
2023-03-01T04:53:56.338Z,-1.57143
2023-03-01T04:54:56.361Z,-1.57143
2023-03-01T04:55:56.393Z,-1.57143
2023-03-01T04:56:56.422Z,-1.57143
2023-03-01T04:57:56.466Z,-1.64286
2023-03-01T04:58:56.485Z,-1.64286
2023-03-01T04:59:56.525Z,-1.64286
2023-03-01T05:00:56.548Z,-1.64286
2023-03-01T05:01:56.573Z,-1.64286
2023-03-01T05:02:56.668Z,-1.64286
2023-03-01T05:03:56.640Z,-1.64286
2023-03-01T05:04:56.673Z,-1.64286
2023-03-01T05:05:56.711Z,-1.64286
2023-03-01T05:06:56.747Z,-1.64286
2023-03-01T05:07:56.774Z,-1.64286
2023-03-01T05:08:56.800Z,-1.64286
2023-03-01T05:09:56.829Z,-1.64286
2023-03-01T05:10:56.860Z,-1.71429
2023-03-01T05:11:56.897Z,-1.71429
2023-03-01T05:12:56.943Z,-1.71429
2023-03-01T05:13:56.975Z,-1.71429
2023-03-01T05:14:57.004Z,-1.78571
2023-03-01T05:15:57.123Z,-1.71429
2023-03-01T05:16:57.078Z,-1.71429
2023-03-01T05:17:57.112Z,-1.71429
2023-03-01T05:18:57.142Z,-1.71429
2023-03-01T05:19:57.186Z,-1.71429
2023-03-01T05:20:57.251Z,-1.71429
2023-03-01T05:21:58.796Z,-1.71429
2023-03-01T05:22:57.287Z,-1.71429
2023-03-01T05:23:57.326Z,-1.71429
2023-03-01T05:24:57.365Z,-1.71429
2023-03-01T05:25:57.400Z,-1.71429
2023-03-01T05:26:57.443Z,-1.71429
2023-03-01T05:27:57.474Z,-1.71429
2023-03-01T05:28:57.525Z,-1.71429
2023-03-01T05:29:57.529Z,-1.71429
2023-03-01T05:30:57.640Z,-1.78571
2023-03-01T05:31:57.639Z,-1.78571
2023-03-01T05:32:57.636Z,-1.78571
2023-03-01T05:33:57.700Z,-1.78571
2023-03-01T05:34:57.694Z,-1.78571
2023-03-01T05:35:57.781Z,-1.78571
2023-03-01T05:36:57.768Z,-1.78571
2023-03-01T05:37:57.812Z,-1.78571
2023-03-01T05:38:57.849Z,-1.85714
2023-03-01T05:39:57.878Z,-1.85714
2023-03-01T05:40:57.905Z,-1.85714
2023-03-01T05:41:57.938Z,-1.85714
2023-03-01T05:42:57.977Z,-1.85714
2023-03-01T05:43:58.000Z,-1.85714
2023-03-01T05:44:58.034Z,-1.85714
2023-03-01T05:45:58.125Z,-1.85714
2023-03-01T05:46:58.106Z,-1.92857
2023-03-01T05:47:58.141Z,-1.92857
2023-03-01T05:48:58.167Z,-1.92857
2023-03-01T05:49:58.202Z,-1.85714
2023-03-01T05:50:58.236Z,-1.85714
2023-03-01T05:51:58.272Z,-1.85714
2023-03-01T05:52:58.300Z,-1.85714
2023-03-01T05:53:58.340Z,-1.85714
2023-03-01T05:54:58.368Z,-1.85714
2023-03-01T05:55:58.397Z,-1.85714
2023-03-01T05:56:58.431Z,-1.85714
2023-03-01T05:57:58.465Z,-1.85714
2023-03-01T05:58:58.514Z,-1.85714
2023-03-01T05:59:58.534Z,-1.92857
2023-03-01T06:00:58.570Z,-1.85714
2023-03-01T06:01:58.610Z,-1.92857
2023-03-01T06:02:58.650Z,-1.92857
2023-03-01T06:03:58.669Z,-1.85714
2023-03-01T06:04:58.807Z,-1.85714
2023-03-01T06:05:58.737Z,-1.85714
2023-03-01T06:06:58.774Z,-1.85714
2023-03-01T06:07:58.806Z,-1.78571
2023-03-01T06:08:58.854Z,-1.78571
2023-03-01T06:09:58.886Z,-1.78571
2023-03-01T06:10:58.907Z,-1.78571
2023-03-01T06:11:58.975Z,-1.78571
2023-03-01T06:12:58.973Z,-1.71429
2023-03-01T06:13:59.018Z,-1.71429
2023-03-01T06:14:59.048Z,-1.71429
2023-03-01T06:15:59.114Z,-1.71429
2023-03-01T06:16:59.125Z,-1.71429
2023-03-01T06:18:00.308Z,-1.71429
2023-03-01T06:18:59.182Z,-1.71429
2023-03-01T06:19:59.207Z,-1.71429
2023-03-01T06:20:59.242Z,-1.71429
2023-03-01T06:21:59.282Z,-1.64286
2023-03-01T06:22:59.307Z,-1.64286
2023-03-01T06:23:59.346Z,-1.57143
2023-03-01T06:24:59.369Z,-1.57143
2023-03-01T06:25:59.412Z,-1.57143
2023-03-01T06:26:59.447Z,-1.57143
2023-03-01T06:27:59.481Z,-1.5
2023-03-01T06:28:59.500Z,-1.5
2023-03-01T06:29:59.535Z,-1.42857
2023-03-01T06:30:59.594Z,-1.42857
2023-03-01T06:31:59.639Z,-1.42857
2023-03-01T06:32:59.644Z,-1.35714
2023-03-01T06:33:59.674Z,-1.35714
2023-03-01T06:34:59.721Z,-1.28571
2023-03-01T06:35:59.838Z,-1.28571
2023-03-01T06:36:59.772Z,-1.28571
2023-03-01T06:37:59.806Z,-1.21429
2023-03-01T06:38:59.851Z,-1.21429
2023-03-01T06:39:59.883Z,-1.21429
2023-03-01T06:40:59.909Z,-1.14286
2023-03-01T06:41:59.954Z,-1.14286
2023-03-01T06:42:59.996Z,-1.07143
2023-03-01T06:44:00.051Z,-1.07143
2023-03-01T06:45:00.081Z,-1.07143
2023-03-01T06:46:00.129Z,-1
2023-03-01T06:47:00.281Z,-1
2023-03-01T06:48:00.170Z,-1
2023-03-01T06:49:00.203Z,-1
2023-03-01T06:50:00.246Z,-1
2023-03-01T06:51:00.282Z,-0.928571
2023-03-01T06:52:00.306Z,-0.928571
2023-03-01T06:53:00.338Z,-0.857143
2023-03-01T06:54:01.773Z,-0.857143
2023-03-01T06:55:00.415Z,-0.785714
2023-03-01T06:56:00.451Z,-0.785714
2023-03-01T06:57:00.490Z,-0.714286
2023-03-01T06:58:00.502Z,-0.714286
2023-03-01T06:59:00.578Z,-0.642857
2023-03-01T07:00:00.586Z,-0.571429
2023-03-01T07:01:00.634Z,-0.5
2023-03-01T07:02:00.696Z,-0.5
2023-03-01T07:03:00.732Z,-0.428571
2023-03-01T07:04:00.726Z,-0.357143
2023-03-01T07:05:00.747Z,-0.285714
2023-03-01T07:06:00.785Z,-0.214286
2023-03-01T07:07:00.816Z,-0.142857
2023-03-01T07:08:00.852Z,-0.0714286
2023-03-01T07:09:06.902Z,0.0714286
2023-03-01T07:10:06.936Z,0.142857
2023-03-01T07:11:06.984Z,0.214286
2023-03-01T07:12:06.998Z,0.285714
2023-03-01T07:13:07.029Z,0.285714
2023-03-01T07:14:07.071Z,0.428571
2023-03-01T07:15:07.102Z,0.571429
2023-03-01T07:16:07.189Z,0.714286
2023-03-01T07:17:07.175Z,0.928571
2023-03-01T07:18:07.209Z,1.21429
2023-03-01T07:19:07.242Z,1.5
2023-03-01T07:20:07.265Z,1.78571
2023-03-01T07:21:07.305Z,2
2023-03-01T07:22:07.340Z,2.14286
2023-03-01T07:23:07.367Z,2.35714
2023-03-01T07:24:07.406Z,2.57143
2023-03-01T07:25:07.460Z,2.78571
2023-03-01T07:26:07.482Z,3.07143
2023-03-01T07:27:07.517Z,3.35714
2023-03-01T07:28:07.551Z,3.5
2023-03-01T07:29:07.579Z,3.71429
2023-03-01T07:30:07.600Z,3.85714
2023-03-01T07:31:07.645Z,3.92857
2023-03-01T07:32:07.774Z,4
2023-03-01T07:33:07.737Z,4.07143
2023-03-01T07:34:07.763Z,4.14286
2023-03-01T07:35:07.790Z,4.21429
2023-03-01T07:36:07.823Z,4.21429
2023-03-01T07:37:07.862Z,4.28571
2023-03-01T07:38:07.888Z,4.42857
2023-03-01T07:39:07.907Z,4.57143
2023-03-01T07:40:07.961Z,4.64286
2023-03-01T07:41:08.011Z,4.64286
2023-03-01T07:42:08.030Z,4.57143
2023-03-01T07:43:08.071Z,4.64286
2023-03-01T07:44:08.099Z,4.64286
2023-03-01T07:45:08.144Z,4.64286
2023-03-01T07:46:08.272Z,4.64286
2023-03-01T07:47:08.205Z,4.71429
2023-03-01T07:48:08.246Z,4.71429
2023-03-01T07:49:08.297Z,4.78571
2023-03-01T07:50:08.302Z,4.78571
2023-03-01T07:51:08.349Z,4.92857
2023-03-01T07:52:08.367Z,5
2023-03-01T07:53:08.409Z,5.14286
2023-03-01T07:54:08.437Z,5.35714
2023-03-01T07:55:08.517Z,5.5
2023-03-01T07:56:08.502Z,5.64286
2023-03-01T07:57:08.543Z,5.71429
2023-03-01T07:58:08.581Z,5.78571
2023-03-01T07:59:08.612Z,5.71429
2023-03-01T08:00:08.651Z,5.71429
2023-03-01T08:01:08.687Z,5.64286
2023-03-01T08:02:08.776Z,5.64286
2023-03-01T08:03:08.866Z,5.57143
2023-03-01T08:04:08.784Z,5.5
2023-03-01T08:05:08.823Z,5.35714
2023-03-01T08:06:08.841Z,5.21429
2023-03-01T08:07:08.880Z,5.14286
2023-03-01T08:08:08.917Z,5.07143
2023-03-01T08:09:08.942Z,4.92857
2023-03-01T08:10:08.971Z,4.92857
2023-03-01T08:11:09.014Z,4.85714
2023-03-01T08:12:09.037Z,4.78571
2023-03-01T08:13:09.072Z,4.71429
2023-03-01T08:14:09.107Z,4.64286
2023-03-01T08:15:09.152Z,4.5
2023-03-01T08:16:09.268Z,4.5
2023-03-01T08:17:09.215Z,4.42857
2023-03-01T08:18:09.245Z,4.35714
2023-03-01T08:19:09.306Z,4.35714
2023-03-01T08:20:09.326Z,4.28571
2023-03-01T08:21:09.357Z,4.21429
2023-03-01T08:22:09.387Z,4.14286
2023-03-01T08:23:09.422Z,4.14286
2023-03-01T08:24:09.462Z,4.14286
2023-03-01T08:25:09.492Z,4.14286
2023-03-01T08:26:09.522Z,4.14286
2023-03-01T08:27:09.558Z,4.07143
2023-03-01T08:28:09.621Z,4.07143
2023-03-01T08:29:09.648Z,4
2023-03-01T08:30:09.698Z,4
2023-03-01T08:31:09.710Z,4
2023-03-01T08:32:09.943Z,3.92857
2023-03-01T08:33:09.813Z,3.92857
2023-03-01T08:34:09.810Z,3.92857
2023-03-01T08:35:09.852Z,3.92857
2023-03-01T08:36:09.892Z,3.85714
2023-03-01T08:37:09.918Z,3.85714
2023-03-01T08:38:09.955Z,3.85714
2023-03-01T08:39:10.001Z,3.85714
2023-03-01T08:40:10.022Z,3.85714
2023-03-01T08:41:10.078Z,3.85714
2023-03-01T08:42:10.092Z,3.92857
2023-03-01T08:43:10.122Z,3.92857
2023-03-01T08:44:10.151Z,4
2023-03-01T08:45:10.193Z,4
2023-03-01T08:46:10.235Z,4
2023-03-01T08:47:10.245Z,4
2023-03-01T08:48:10.267Z,4
2023-03-01T08:49:10.308Z,4
2023-03-01T08:50:10.360Z,4.07143
2023-03-01T08:51:10.379Z,4.07143
2023-03-01T08:52:10.409Z,4.07143
2023-03-01T08:53:10.451Z,4.14286
2023-03-01T08:54:10.471Z,4.21429
2023-03-01T08:55:10.498Z,4.28571
2023-03-01T08:56:10.551Z,4.42857
2023-03-01T08:57:10.575Z,4.57143
2023-03-01T08:58:10.610Z,4.71429
2023-03-01T08:59:10.654Z,4.92857
2023-03-01T09:00:10.683Z,5.07143
2023-03-01T09:01:10.714Z,5.28571
2023-03-01T09:02:10.793Z,5.42857
2023-03-01T09:03:10.792Z,5.57143
2023-03-01T09:04:10.886Z,5.64286
2023-03-01T09:05:10.845Z,5.71429
2023-03-01T09:06:10.892Z,5.71429
2023-03-01T09:07:10.920Z,5.71429
2023-03-01T09:08:10.987Z,5.64286
2023-03-01T09:09:10.983Z,5.57143
2023-03-01T09:10:11.008Z,5.57143
2023-03-01T09:11:11.048Z,5.57143
2023-03-01T09:12:11.089Z,5.64286
2023-03-01T09:13:11.131Z,5.78571
2023-03-01T09:14:11.140Z,5.92857
2023-03-01T09:15:11.169Z,6.07143
2023-03-01T09:16:11.338Z,6.28571
2023-03-01T09:17:11.372Z,6.5
2023-03-01T09:18:11.274Z,6.71429
2023-03-01T09:19:11.299Z,6.78571
2023-03-01T09:20:11.335Z,6.85714
2023-03-01T09:21:11.374Z,6.85714
2023-03-01T09:22:11.417Z,6.78571
2023-03-01T09:23:11.466Z,6.71429
2023-03-01T09:24:11.505Z,6.64286
2023-03-01T09:25:11.520Z,6.57143
2023-03-01T09:26:11.561Z,6.5
2023-03-01T09:27:11.583Z,6.35714
2023-03-01T09:28:24.193Z,6.28571
2023-03-01T09:29:11.650Z,6.21429
2023-03-01T09:30:11.687Z,6.21429
2023-03-01T09:31:11.788Z,6.14286
2023-03-01T09:32:11.856Z,6.07143
2023-03-01T09:33:11.795Z,6
2023-03-01T09:34:11.889Z,5.92857
2023-03-01T09:35:11.850Z,5.92857
2023-03-01T09:36:11.897Z,5.85714
2023-03-01T09:37:11.925Z,5.85714
2023-03-01T09:38:11.955Z,5.78571
2023-03-01T09:39:11.984Z,5.78571
2023-03-01T09:40:12.022Z,5.71429
2023-03-01T09:41:12.067Z,5.71429
2023-03-01T09:42:12.093Z,5.64286
2023-03-01T09:43:12.133Z,5.64286
2023-03-01T09:44:12.174Z,5.64286
2023-03-01T09:45:12.209Z,5.57143
2023-03-01T09:46:12.301Z,5.57143
2023-03-01T09:47:12.417Z,5.57143
2023-03-01T09:48:12.307Z,5.57143
2023-03-01T09:49:12.342Z,5.57143
2023-03-01T09:50:12.392Z,5.57143
2023-03-01T09:51:12.421Z,5.57143
2023-03-01T09:52:12.466Z,5.57143
2023-03-01T09:53:12.483Z,5.57143
2023-03-01T09:54:12.524Z,5.57143
2023-03-01T09:55:12.558Z,5.57143
2023-03-01T09:56:12.590Z,5.57143
2023-03-01T09:57:12.626Z,5.57143
2023-03-01T09:58:12.648Z,5.64286
2023-03-01T09:59:12.694Z,5.64286
2023-03-01T10:00:12.728Z,5.64286
2023-03-01T10:01:12.761Z,5.64286
2023-03-01T10:02:12.802Z,5.64286
2023-03-01T10:03:12.840Z,5.64286
2023-03-01T10:04:12.909Z,5.71429
2023-03-01T10:05:12.962Z,5.71429
2023-03-01T10:06:23.995Z,5.78571
2023-03-01T10:07:12.946Z,5.78571
2023-03-01T10:08:12.984Z,5.78571
2023-03-01T10:09:13.004Z,5.85714
2023-03-01T10:10:13.035Z,5.85714
2023-03-01T10:11:13.075Z,5.85714
2023-03-01T10:12:13.104Z,5.92857
2023-03-01T10:13:13.134Z,5.92857
2023-03-01T10:14:13.169Z,5.92857
2023-03-01T10:15:13.201Z,6
2023-03-01T10:16:13.314Z,6
2023-03-01T10:17:13.269Z,6
2023-03-01T10:18:13.337Z,6
2023-03-01T10:19:13.348Z,6.07143
2023-03-01T10:20:13.373Z,6.07143
2023-03-01T10:21:13.426Z,6.07143
2023-03-01T10:22:13.453Z,6.14286
2023-03-01T10:23:13.474Z,6.14286
2023-03-01T10:24:13.520Z,6.14286
2023-03-01T10:25:13.563Z,6.21429
2023-03-01T10:26:13.581Z,6.21429
2023-03-01T10:27:13.626Z,6.21429
2023-03-01T10:28:13.692Z,6.28571
2023-03-01T10:29:13.691Z,6.28571
2023-03-01T10:30:13.736Z,6.28571
2023-03-01T10:31:13.794Z,6.28571
2023-03-01T10:32:13.864Z,6.28571
2023-03-01T10:33:13.830Z,6.35714
2023-03-01T10:34:13.857Z,6.35714
2023-03-01T10:35:13.887Z,6.35714
2023-03-01T10:36:13.929Z,6.35714
2023-03-01T10:37:13.982Z,6.42857
2023-03-01T10:38:14.002Z,6.42857
2023-03-01T10:39:14.037Z,6.42857
2023-03-01T10:40:14.072Z,6.42857
2023-03-01T10:41:14.106Z,6.42857
2023-03-01T10:42:14.133Z,6.42857
2023-03-01T10:43:14.171Z,6.42857
2023-03-01T10:44:14.206Z,6.5
2023-03-01T10:45:14.239Z,6.5
2023-03-01T10:46:14.300Z,6.5
2023-03-01T10:47:14.304Z,6.5
2023-03-01T10:48:14.333Z,6.5
2023-03-01T10:49:14.376Z,6.57143
2023-03-01T10:50:14.407Z,6.57143
2023-03-01T10:51:14.446Z,6.57143
2023-03-01T10:52:14.473Z,6.57143
2023-03-01T10:53:14.513Z,6.57143
2023-03-01T10:54:14.553Z,6.57143
2023-03-01T10:55:14.583Z,6.57143
2023-03-01T10:56:14.636Z,6.64286
2023-03-01T10:57:14.658Z,6.64286
2023-03-01T10:58:14.688Z,6.64286
2023-03-01T10:59:14.726Z,6.64286
2023-03-01T11:00:14.760Z,6.64286
2023-03-01T11:01:14.809Z,6.71429
2023-03-01T11:02:24.062Z,6.71429
2023-03-01T11:03:14.853Z,6.71429
2023-03-01T11:04:15.029Z,6.71429
2023-03-01T11:05:14.936Z,6.78571
2023-03-01T11:06:14.965Z,6.78571
2023-03-01T11:07:14.989Z,6.78571
2023-03-01T11:08:15.029Z,6.85714
2023-03-01T11:09:15.085Z,6.85714
2023-03-01T11:10:15.102Z,6.85714
2023-03-01T11:11:15.123Z,6.85714
2023-03-01T11:12:15.171Z,6.85714
2023-03-01T11:13:15.204Z,6.85714
2023-03-01T11:14:25.827Z,6.92857
2023-03-01T11:15:15.262Z,6.92857
2023-03-01T11:16:15.339Z,6.92857
2023-03-01T11:17:15.334Z,6.92857
2023-03-01T11:18:15.395Z,6.92857
2023-03-01T11:19:15.392Z,6.92857
2023-03-01T11:20:15.589Z,7
2023-03-01T11:21:15.492Z,7
2023-03-01T11:22:15.570Z,7
2023-03-01T11:23:15.542Z,7
2023-03-01T11:24:15.588Z,7.07143
2023-03-01T11:25:15.614Z,7.07143
2023-03-01T11:26:15.653Z,7.07143
2023-03-01T11:27:15.685Z,7.14286
2023-03-01T11:28:15.758Z,7.14286
2023-03-01T11:29:15.776Z,7.14286
2023-03-01T11:30:15.874Z,7.14286
2023-03-01T11:31:15.953Z,7.21429
2023-03-01T11:32:16.007Z,7.21429
2023-03-01T11:33:16.000Z,7.28571
2023-03-01T11:34:15.947Z,7.28571
2023-03-01T11:35:15.965Z,7.28571
2023-03-01T11:36:16.012Z,7.28571
2023-03-01T11:37:16.029Z,7.35714
2023-03-01T11:38:16.066Z,7.35714
2023-03-01T11:39:16.113Z,7.35714
2023-03-01T11:40:16.122Z,7.35714
2023-03-01T11:41:16.153Z,7.42857
2023-03-01T11:42:19.191Z,7.42857
2023-03-01T11:43:16.320Z,7.42857
2023-03-01T11:44:16.259Z,7.5
2023-03-01T11:45:16.296Z,7.5
2023-03-01T11:46:16.343Z,7.5
2023-03-01T11:47:16.432Z,7.57143
2023-03-01T11:48:16.473Z,7.57143
2023-03-01T11:49:16.420Z,7.64286
2023-03-01T11:50:16.444Z,7.64286
2023-03-01T11:51:16.731Z,7.71429
2023-03-01T11:52:16.529Z,7.71429
2023-03-01T11:53:16.543Z,7.71429
2023-03-01T11:54:17.585Z,7.78571
2023-03-01T11:55:16.607Z,7.78571
2023-03-01T11:56:16.673Z,7.78571
2023-03-01T11:57:16.680Z,7.78571
2023-03-01T11:58:16.740Z,7.78571
2023-03-01T11:59:16.772Z,7.78571
2023-03-01T12:00:16.800Z,7.85714
2023-03-01T12:01:16.817Z,7.85714
2023-03-01T12:02:16.874Z,7.85714
2023-03-01T12:03:16.920Z,7.85714
2023-03-01T12:04:16.976Z,7.85714